Time;durP1;ratioP1;P1;durP2;ratioP2;P2;SDS_P1;SDS_P2;PMS_P1;PMS_P2;Temp;Humidity;BMP_temperature;BMP_pressure;BME280_temperature;BME280_humidity;BME280_pressure;Samples;Min_cycle;Max_cycle;Signal;HPM_P1;HPM_P2
2020/12/26 00:02:18;;;;;;;8.93;6.53;;;2.70;1.00;;;;;;4865866;29;20315;-76
2020/12/26 00:04:46;;;;;;;8.68;6.38;;;2.70;1.00;;;;;;4865190;29;20222;-76
2020/12/26 00:07:13;;;;;;;6.60;5.90;;;2.70;1.00;;;;;;4865296;29;20209;-76
2020/12/26 00:09:40;;;;;;;10.80;7.40;;;2.80;1.00;;;;;;4860280;29;20870;-77
2020/12/26 00:12:07;;;;;;;8.88;6.63;;;2.80;1.00;;;;;;4864451;29;20246;-76
2020/12/26 00:14:35;;;;;;;8.45;7.28;;;2.80;1.00;;;;;;4866047;29;20265;-77
2020/12/26 00:17:03;;;;;;;9.27;6.07;;;2.90;1.00;;;;;;4865421;29;20234;-76
2020/12/26 00:19:30;;;;;;;7.95;6.50;;;2.80;1.00;;;;;;4864550;29;20810;-76
2020/12/26 00:21:57;;;;;;;9.30;6.80;;;2.90;1.00;;;;;;4864951;29;20762;-77
2020/12/26 00:24:24;;;;;;;9.20;6.85;;;2.80;1.00;;;;;;4865548;29;20246;-74
2020/12/26 00:26:51;;;;;;;9.82;7.13;;;2.80;1.00;;;;;;4864239;29;20214;-76
2020/12/26 00:29:18;;;;;;;10.43;7.05;;;2.80;1.00;;;;;;4879923;29;20341;-77
2020/12/26 00:31:48;;;;;;;10.23;7.05;;;2.80;1.00;;;;;;4867138;29;20269;-76
2020/12/26 00:34:15;;;;;;;11.30;7.15;;;2.70;99.90;;;;;;4864499;29;20223;-76
2020/12/26 00:36:42;;;;;;;10.13;6.43;;;2.70;1.00;;;;;;4865456;29;20262;-77
2020/12/26 00:39:10;;;;;;;8.02;5.43;;;2.70;1.00;;;;;;4864622;29;20211;-76
2020/12/26 00:41:37;;;;;;;8.25;5.45;;;2.70;99.90;;;;;;4867365;29;20245;-75
2020/12/26 00:44:04;;;;;;;9.57;6.97;;;2.70;1.00;;;;;;4865022;29;20296;-75
2020/12/26 00:46:31;;;;;;;9.35;7.47;;;2.70;37.20;;;;;;4866289;29;20682;-76
2020/12/26 00:48:59;;;;;;;15.07;9.18;;;2.70;99.90;;;;;;4866052;29;20212;-75
2020/12/26 00:51:26;;;;;;;9.15;6.20;;;2.70;1.00;;;;;;4879858;29;20261;-75
2020/12/26 00:53:53;;;;;;;13.85;7.70;;;2.70;1.00;;;;;;4872773;29;20215;-75
2020/12/26 00:56:20;;;;;;;10.07;6.90;;;2.70;34.70;;;;;;4867799;29;20222;-75
2020/12/26 00:58:48;;;;;;;12.00;6.75;;;2.70;99.90;;;;;;4865194;29;20218;-77
2020/12/26 01:01:15;;;;;;;11.38;7.50;;;2.70;99.90;;;;;;4864341;29;20304;-77
2020/12/26 01:03:42;;;;;;;9.43;6.78;;;2.70;30.80;;;;;;4867785;29;20220;-76
2020/12/26 01:06:14;;;;;;;12.10;7.22;;;2.70;12.00;;;;;;4864334;29;20276;-76
2020/12/26 01:08:41;;;;;;;8.82;7.15;;;2.80;84.20;;;;;;4864258;29;20286;-77
2020/12/26 01:11:09;;;;;;;12.73;7.20;;;2.80;1.00;;;;;;4882179;29;20242;-75
2020/12/26 01:13:37;;;;;;;10.88;7.20;;;2.70;1.00;;;;;;4863931;29;20224;-76
2020/12/26 01:16:04;;;;;;;11.93;8.02;;;2.70;99.90;;;;;;4868797;29;20283;-76
2020/12/26 01:18:31;;;;;;;10.35;7.68;;;2.80;99.90;;;;;;4863890;29;20330;-76
2020/12/26 01:20:58;;;;;;;9.43;6.35;;;2.80;99.90;;;;;;4866172;29;20254;-76
2020/12/26 01:23:26;;;;;;;14.07;9.65;;;2.80;99.90;;;;;;4865813;29;20252;-76
2020/12/26 01:25:53;;;;;;;11.25;7.43;;;2.70;99.90;;;;;;4864510;29;20705;-76
2020/12/26 01:28:20;;;;;;;10.85;6.53;;;2.70;99.90;;;;;;4866077;29;20927;-78
2020/12/26 01:30:47;;;;;;;11.40;8.13;;;2.80;99.90;;;;;;4864152;29;20599;-76
2020/12/26 01:33:14;;;;;;;11.15;8.25;;;2.80;87.60;;;;;;4866398;29;20222;-75
2020/12/26 01:35:41;;;;;;;10.20;7.28;;;2.80;1.00;;;;;;4864519;29;20279;-75
2020/12/26 01:38:08;;;;;;;12.48;7.85;;;2.80;99.90;;;;;;4866756;29;20303;-76
2020/12/26 01:40:36;;;;;;;10.38;7.32;;;2.90;99.90;;;;;;4866881;29;20237;-75
2020/12/26 01:43:03;;;;;;;12.35;7.53;;;2.80;99.90;;;;;;4867408;29;20215;-74
2020/12/26 01:45:31;;;;;;;13.02;8.25;;;2.80;99.90;;;;;;4864900;29;20221;-75
2020/12/26 01:47:58;;;;;;;10.45;7.75;;;2.80;99.90;;;;;;4865442;29;20209;-75
2020/12/26 01:50:25;;;;;;;10.43;7.68;;;2.80;99.90;;;;;;4868337;29;20234;-75
2020/12/26 01:52:53;;;;;;;13.35;8.13;;;2.90;99.90;;;;;;4863839;29;20218;-75
2020/12/26 01:55:21;;;;;;;13.32;8.77;;;2.90;99.90;;;;;;4865896;29;20272;-75
2020/12/26 01:57:53;;;;;;;10.32;8.20;;;2.90;99.90;;;;;;4868807;29;21024;-76
2020/12/26 02:00:21;;;;;;;13.48;8.57;;;2.90;99.90;;;;;;4867593;29;20242;-75
2020/12/26 02:02:49;;;;;;;13.00;7.85;;;2.80;99.90;;;;;;4866811;29;20281;-75
2020/12/26 02:08:44;;;;;;;11.68;7.28;;;2.50;1.00;;;;;;4866974;29;20225;-75
2020/12/26 02:11:14;;;;;;;11.48;7.25;;;2.60;1.00;;;;;;4872476;29;20236;-76
2020/12/26 02:13:42;;;;;;;11.75;8.43;;;2.60;1.00;;;;;;4869050;29;20242;-76
2020/12/26 02:16:13;;;;;;;13.90;7.90;;;2.60;99.90;;;;;;4871871;29;20217;-75
2020/12/26 02:18:41;;;;;;;11.57;7.65;;;2.60;99.90;;;;;;4870433;29;20292;-76
2020/12/26 02:21:08;;;;;;;11.77;8.93;;;2.60;99.90;;;;;;4875170;29;20246;-77
2020/12/26 02:23:43;;;;;;;12.23;7.40;;;2.60;99.90;;;;;;4901491;29;20209;-77
2020/12/26 02:26:10;;;;;;;12.10;9.10;;;2.60;99.90;;;;;;4895814;29;20213;-77
2020/12/26 02:28:38;;;;;;;14.55;8.93;;;2.60;1.00;;;;;;4873825;29;20294;-76
2020/12/26 02:31:05;;;;;;;10.90;7.65;;;2.60;1.00;;;;;;4872700;29;20245;-78
2020/12/26 02:33:34;;;;;;;14.52;8.18;;;2.60;1.00;;;;;;4867854;29;20215;-76
2020/12/26 02:36:02;;;;;;;10.80;7.43;;;2.70;1.00;;;;;;4863591;29;20225;-76
2020/12/26 02:38:29;;;;;;;14.07;7.80;;;2.70;1.00;;;;;;4882473;29;20753;-76
2020/12/26 02:40:57;;;;;;;12.05;8.07;;;2.70;99.90;;;;;;4867831;29;20332;-77
2020/12/26 02:46:49;;;;;;;16.30;7.43;;;2.60;1.00;;;;;;4868139;29;20241;-76
2020/12/26 02:49:17;;;;;;;13.32;8.20;;;2.70;1.00;;;;;;4867252;29;20743;-76
2020/12/26 02:51:45;;;;;;;10.85;8.35;;;2.70;99.90;;;;;;4865354;29;20304;-76
2020/12/26 02:54:13;;;;;;;14.23;8.68;;;2.70;99.90;;;;;;4864607;29;21152;-76
2020/12/26 02:56:41;;;;;;;13.77;7.80;;;2.70;1.00;;;;;;4879074;29;20223;-77
2020/12/26 02:59:08;;;;;;;13.43;8.43;;;2.70;1.00;;;;;;4867478;29;20285;-77
2020/12/26 03:01:39;;;;;;;16.70;8.30;;;2.80;99.90;;;;;;4866316;29;20245;-76
2020/12/26 03:04:07;;;;;;;10.52;6.75;;;2.80;99.90;;;;;;4867044;29;20309;-76
2020/12/26 03:06:34;;;;;;;11.23;8.18;;;2.70;99.90;;;;;;4864522;29;20220;-76
2020/12/26 03:09:01;;;;;;;11.32;6.95;;;2.80;99.90;;;;;;4867207;29;20612;-74
2020/12/26 03:11:28;;;;;;;15.32;6.90;;;2.80;99.90;;;;;;4867751;29;20240;-76
2020/12/26 03:13:56;;;;;;;11.98;7.90;;;2.70;99.90;;;;;;4871325;29;20218;-76
2020/12/26 03:16:23;;;;;;;9.95;7.15;;;2.70;99.90;;;;;;4873535;29;20235;-75
2020/12/26 03:18:50;;;;;;;12.82;7.50;;;2.70;99.90;;;;;;4879083;29;20253;-74
2020/12/26 03:21:18;;;;;;;14.38;8.45;;;2.70;1.00;;;;;;4868240;29;20333;-76
2020/12/26 03:23:46;;;;;;;11.82;7.63;;;2.70;85.10;;;;;;4865394;29;20761;-76
2020/12/26 03:26:13;;;;;;;10.45;7.38;;;2.60;1.00;;;;;;4867876;29;20233;-76
2020/12/26 03:28:40;;;;;;;8.20;7.30;;;2.60;99.90;;;;;;4866411;29;20250;-77
2020/12/26 03:31:09;;;;;;;13.07;7.88;;;2.50;99.90;;;;;;4866096;29;20279;-74
2020/12/26 03:33:36;;;;;;;13.32;7.72;;;2.40;1.00;;;;;;4866853;29;20693;-74
2020/12/26 03:36:04;;;;;;;12.63;7.60;;;2.40;99.90;;;;;;4866460;29;20272;-75
2020/12/26 03:38:31;;;;;;;9.60;7.20;;;2.40;99.90;;;;;;4864316;29;20256;-75
2020/12/26 03:40:58;;;;;;;13.10;8.05;;;2.40;99.90;;;;;;4864917;29;20717;-75
2020/12/26 03:43:25;;;;;;;10.18;7.88;;;2.40;99.90;;;;;;4865240;29;20695;-77
2020/12/26 03:45:52;;;;;;;12.07;6.95;;;2.30;1.00;;;;;;4867631;29;20770;-77
2020/12/26 03:48:20;;;;;;;10.38;6.68;;;2.30;1.00;;;;;;4866187;29;20241;-76
2020/12/26 03:50:47;;;;;;;11.63;7.75;;;2.30;99.90;;;;;;4864757;29;20329;-76
2020/12/26 03:53:14;;;;;;;11.95;7.35;;;2.30;99.90;;;;;;4865546;29;20222;-75
2020/12/26 03:55:41;;;;;;;12.35;7.80;;;2.20;99.90;;;;;;4866104;29;20300;-76
2020/12/26 03:58:08;;;;;;;12.82;6.75;;;2.20;99.90;;;;;;4867609;29;20240;-75
2020/12/26 04:00:35;;;;;;;12.38;7.47;;;2.10;99.90;;;;;;4864809;29;20674;-73
2020/12/26 04:03:03;;;;;;;12.68;7.93;;;2.10;94.00;;;;;;4867670;29;20222;-76
2020/12/26 04:05:41;;;;;;;14.85;9.15;;;2.10;99.90;;;;;;4866478;29;20228;-76
2020/12/26 04:08:08;;;;;;;17.58;8.27;;;2.10;99.90;;;;;;4878915;29;20220;-76
2020/12/26 04:10:35;;;;;;;10.07;7.10;;;2.00;1.00;;;;;;4881027;29;20238;-76
2020/12/26 04:13:02;;;;;;;12.45;7.55;;;2.00;99.90;;;;;;4863879;29;20264;-75
2020/12/26 04:15:30;;;;;;;9.55;7.50;;;2.00;99.90;;;;;;4868017;29;20240;-75
2020/12/26 04:17:57;;;;;;;11.02;8.25;;;2.00;1.00;;;;;;4864386;29;20226;-76
2020/12/26 04:24:13;;;;;;;9.60;6.82;;;1.90;86.30;;;;;;4877006;29;20266;-75
2020/12/26 04:26:40;;;;;;;11.68;6.97;;;1.80;1.00;;;;;;4864470;29;20299;-76
2020/12/26 04:29:08;;;;;;;14.10;7.15;;;1.80;99.90;;;;;;4865164;29;20269;-76
2020/12/26 04:31:35;;;;;;;12.93;7.40;;;1.80;1.00;;;;;;4866091;29;20242;-76
2020/12/26 04:34:03;;;;;;;9.85;7.22;;;1.90;16.20;;;;;;4865811;29;20221;-75
2020/12/26 04:36:30;;;;;;;10.75;7.38;;;1.90;1.00;;;;;;4865705;29;20239;-76
2020/12/26 04:38:57;;;;;;;9.75;6.55;;;2.00;1.00;;;;;;4880409;29;20253;-76
2020/12/26 04:41:25;;;;;;;15.25;8.30;;;2.00;1.00;;;;;;4867053;29;20725;-76
2020/12/26 04:43:55;;;;;;;10.80;8.15;;;1.90;1.00;;;;;;4864036;29;20302;-75
2020/12/26 04:46:27;;;;;;;14.23;7.97;;;2.00;1.00;;;;;;4868804;29;20210;-75
2020/12/26 04:49:08;;;;;;;14.18;7.60;;;2.00;1.00;;;;;;4867633;29;20236;-74
2020/12/26 04:51:39;;;;;;;15.00;8.10;;;2.10;1.00;;;;;;4866857;29;20817;-76
2020/12/26 04:54:09;;;;;;;10.82;6.60;;;2.10;1.00;;;;;;4864082;29;20313;-75
2020/12/26 04:56:43;;;;;;;16.45;8.40;;;2.10;1.00;;;;;;4866132;29;20212;-75
2020/12/26 04:59:11;;;;;;;14.80;7.80;;;2.10;1.00;;;;;;4868445;29;20629;-74
2020/12/26 05:02:02;;;;;;;12.65;7.30;;;2.10;1.00;;;;;;4864742;29;20236;-76
2020/12/26 05:04:29;;;;;;;12.45;7.60;;;2.20;1.00;;;;;;4863605;29;20313;-75
2020/12/26 05:06:56;;;;;;;11.75;7.45;;;2.20;1.00;;;;;;4867162;29;20216;-76
2020/12/26 05:09:24;;;;;;;9.82;6.68;;;2.30;1.00;;;;;;4865972;29;20217;-74
2020/12/26 05:11:58;;;;;;;13.00;7.85;;;2.30;1.00;;;;;;4866288;29;20241;-75
2020/12/26 05:14:30;;;;;;;10.20;8.05;;;2.30;1.00;;;;;;4866118;29;20237;-76
2020/12/26 05:17:00;;;;;;;11.13;7.03;;;2.20;99.90;;;;;;4867626;29;20243;-73
2020/12/26 05:19:28;;;;;;;16.00;7.55;;;2.20;99.90;;;;;;4865533;29;20239;-77
2020/12/26 05:21:59;;;;;;;12.60;6.75;;;2.20;99.90;;;;;;4865143;29;20239;-76
2020/12/26 05:24:26;;;;;;;11.65;7.30;;;2.20;1.00;;;;;;4865842;29;20224;-75
2020/12/26 05:27:00;;;;;;;11.70;8.10;;;2.30;1.00;;;;;;4866035;29;20231;-76
2020/12/26 05:29:28;;;;;;;13.43;7.30;;;2.30;1.00;;;;;;4864741;29;20675;-76
2020/12/26 05:32:34;;;;;;;11.48;7.38;;;2.30;1.00;;;;;;4865080;29;20253;-74
2020/12/26 05:35:10;;;;;;;10.90;6.28;;;2.30;99.90;;;;;;4808503;29;20348;-75
2020/12/26 05:37:37;;;;;;;11.15;6.93;;;2.30;99.90;;;;;;4866262;29;20788;-76
2020/12/26 05:40:05;;;;;;;10.80;7.10;;;2.30;1.00;;;;;;4868645;29;20300;-75
2020/12/26 05:42:33;;;;;;;8.90;6.70;;;2.30;1.00;;;;;;4867363;29;20225;-76
2020/12/26 05:45:06;;;;;;;10.00;6.30;;;2.40;99.90;;;;;;4864694;29;20357;-75
2020/12/26 05:47:33;;;;;;;11.02;6.22;;;2.20;99.90;;;;;;4878325;29;21438;-74
2020/12/26 05:50:01;;;;;;;7.93;5.95;;;2.20;1.00;;;;;;4864811;29;20218;-74
2020/12/26 05:52:52;;;;;;;8.93;5.72;;;2.00;1.00;;;;;;4878760;29;20249;-74
2020/12/26 05:55:21;;;;;;;11.63;6.28;;;2.00;1.00;;;;;;4867782;29;20249;-76
2020/12/26 05:57:54;;;;;;;9.73;6.85;;;1.90;99.90;;;;;;4869615;29;20264;-77
2020/12/26 06:00:34;;;;;;;10.95;6.55;;;1.90;99.90;;;;;;4868035;29;20286;-75
2020/12/26 06:03:20;;;;;;;7.57;5.63;;;2.00;99.90;;;;;;4868418;29;20216;-76
2020/12/26 06:05:48;;;;;;;8.40;6.50;;;2.00;99.90;;;;;;4869964;29;20224;-75
2020/12/26 06:08:19;;;;;;;10.07;7.10;;;2.10;58.10;;;;;;4867758;29;20655;-77
2020/12/26 06:10:50;;;;;;;9.23;5.65;;;2.00;37.80;;;;;;4868006;29;20237;-76
2020/12/26 06:13:20;;;;;;;9.52;7.10;;;2.10;1.00;;;;;;4868714;29;20236;-77
2020/12/26 06:15:52;;;;;;;8.07;6.13;;;1.90;99.90;;;;;;4868490;29;20266;-76
2020/12/26 06:18:21;;;;;;;9.25;7.25;;;1.70;1.00;;;;;;4868387;29;21043;-75
2020/12/26 06:20:52;;;;;;;14.40;7.55;;;1.70;99.90;;;;;;4882175;29;20345;-74
2020/12/26 06:23:22;;;;;;;10.20;6.35;;;1.60;1.00;;;;;;4868281;29;20218;-76
2020/12/26 06:25:51;;;;;;;12.73;6.55;;;1.60;1.00;;;;;;4867825;29;20222;-76
2020/12/26 06:28:31;;;;;;;12.40;7.38;;;1.60;1.00;;;;;;4868507;29;20217;-76
2020/12/26 06:31:01;;;;;;;10.80;6.95;;;1.50;1.00;;;;;;4880196;29;20240;-75
2020/12/26 06:33:31;;;;;;;13.77;6.70;;;1.40;1.00;;;;;;4868992;29;20226;-77
2020/12/26 06:35:59;;;;;;;12.43;5.75;;;1.30;99.90;;;;;;4869526;29;20217;-77
2020/12/26 06:38:30;;;;;;;11.75;6.10;;;1.40;99.90;;;;;;4869553;29;20242;-76
2020/12/26 06:41:02;;;;;;;13.07;5.90;;;1.40;99.90;;;;;;4866833;29;20241;-77
2020/12/26 06:43:44;;;;;;;11.68;6.40;;;1.30;99.90;;;;;;4870870;29;20218;-74
2020/12/26 06:46:36;;;;;;;9.40;6.60;;;1.20;99.90;;;;;;4866484;29;20212;-75
2020/12/26 06:49:04;;;;;;;9.90;6.10;;;1.20;99.90;;;;;;4867727;29;20218;-73
2020/12/26 06:51:32;;;;;;;11.27;6.70;;;1.20;99.90;;;;;;4868326;29;20237;-76
2020/12/26 06:54:01;;;;;;;9.75;6.80;;;1.30;99.90;;;;;;4868887;29;20241;-74
2020/12/26 06:56:49;;;;;;;12.57;7.05;;;1.20;99.90;;;;;;4866842;29;20478;-77
2020/12/26 06:59:17;;;;;;;10.18;6.97;;;1.00;99.90;;;;;;4864004;29;20238;-76
2020/12/26 07:01:46;;;;;;;11.18;6.93;;;1.00;99.90;;;;;;4866528;29;22480;-75
2020/12/26 07:04:14;;;;;;;11.07;6.18;;;1.00;99.90;;;;;;4867945;29;20241;-76
2020/12/26 07:06:43;;;;;;;11.90;6.53;;;1.00;99.90;;;;;;4865957;29;20278;-77
2020/12/26 07:09:12;;;;;;;10.48;6.43;;;1.10;99.90;;;;;;4868422;29;20220;-76
2020/12/26 07:11:47;;;;;;;11.23;6.60;;;1.00;99.90;;;;;;4871352;29;20634;-76
2020/12/26 07:14:31;;;;;;;9.80;7.63;;;1.00;99.90;;;;;;4874644;29;20261;-76
2020/12/26 07:16:59;;;;;;;7.32;6.05;;;1.00;99.90;;;;;;4875896;29;20621;-76
2020/12/26 07:19:42;;;;;;;13.60;7.95;;;1.10;99.90;;;;;;4877724;29;20321;-79
2020/12/26 07:22:15;;;;;;;10.35;6.55;;;1.20;99.90;;;;;;4872597;29;20270;-80
2020/12/26 07:24:44;;;;;;;11.93;7.15;;;1.30;99.90;;;;;;4867325;29;20232;-75
2020/12/26 07:27:12;;;;;;;13.45;9.93;;;1.40;99.90;;;;;;4866810;29;20221;-76
2020/12/26 07:29:49;;;;;;;10.48;7.07;;;1.40;1.00;;;;;;4879177;29;20221;-78
2020/12/26 07:32:42;;;;;;;10.57;7.72;;;1.40;1.00;;;;;;4886653;29;20268;-75
2020/12/26 07:35:16;;;;;;;11.30;7.15;;;1.40;1.00;;;;;;4883819;29;20230;-75
2020/12/26 07:37:44;;;;;;;12.88;6.88;;;1.50;1.00;;;;;;4870115;29;20232;-76
2020/12/26 07:40:17;;;;;;;15.23;6.63;;;1.50;1.00;;;;;;4870820;29;20226;-74
2020/12/26 07:42:44;;;;;;;12.60;9.00;;;1.40;99.90;;;;;;4881182;29;20594;-74
2020/12/26 07:45:14;;;;;;;11.43;7.40;;;1.40;1.00;;;;;;4867207;29;20628;-75
2020/12/26 07:47:42;;;;;;;14.48;8.50;;;1.40;1.00;;;;;;4865618;29;20274;-75
2020/12/26 07:50:09;;;;;;;13.57;7.90;;;1.40;1.00;;;;;;4867551;29;20317;-75
2020/12/26 07:52:37;;;;;;;8.98;6.90;;;1.40;1.00;;;;;;4866021;29;20218;-76
2020/12/26 07:55:05;;;;;;;10.93;7.28;;;1.40;1.00;;;;;;4870451;29;20219;-76
2020/12/26 07:57:32;;;;;;;10.43;8.63;;;1.50;1.00;;;;;;4867795;29;20223;-75
2020/12/26 08:00:02;;;;;;;9.70;7.10;;;1.60;1.00;;;;;;4867613;29;20305;-76
2020/12/26 08:02:31;;;;;;;13.70;7.93;;;1.50;99.90;;;;;;4864723;29;20998;-76
2020/12/26 08:04:58;;;;;;;8.50;6.40;;;1.50;99.90;;;;;;4880387;29;20214;-73
2020/12/26 08:07:30;;;;;;;11.38;7.13;;;1.60;1.00;;;;;;4869508;29;20276;-76
2020/12/26 08:09:58;;;;;;;11.57;9.60;;;1.60;99.90;;;;;;4865179;29;20812;-76
2020/12/26 08:12:25;;;;;;;9.77;7.40;;;1.60;99.90;;;;;;4867761;29;20317;-75
2020/12/26 08:14:56;;;;;;;11.07;7.22;;;1.70;99.90;;;;;;4864675;29;20284;-76
2020/12/26 08:17:24;;;;;;;8.88;6.50;;;1.80;1.00;;;;;;4866634;29;20585;-74
2020/12/26 08:20:01;;;;;;;13.05;6.30;;;1.90;99.90;;;;;;4861896;29;20293;-74
2020/12/26 08:22:28;;;;;;;11.82;6.03;;;1.90;1.00;;;;;;4867501;29;20231;-75
2020/12/26 08:25:14;;;;;;;8.30;5.95;;;1.90;99.90;;;;;;4865035;29;20232;-77
2020/12/26 08:27:41;;;;;;;7.82;5.75;;;2.20;1.00;;;;;;4867608;29;20681;-74
2020/12/26 08:30:11;;;;;;;7.15;6.07;;;2.40;93.80;;;;;;4867320;29;21241;-75
2020/12/26 08:32:55;;;;;;;5.90;5.30;;;2.30;1.00;;;;;;4871457;29;20227;-74
2020/12/26 08:35:25;;;;;;;7.07;5.20;;;2.40;1.00;;;;;;4867027;29;20295;-74
2020/12/26 08:38:01;;;;;;;5.57;4.63;;;2.60;99.90;;;;;;4875494;29;20640;-74
2020/12/26 08:40:32;;;;;;;7.82;5.28;;;2.60;1.00;;;;;;4874574;29;20287;-78
2020/12/26 08:42:59;;;;;;;6.80;5.65;;;2.80;99.90;;;;;;4871990;29;20209;-74
2020/12/26 08:45:30;;;;;;;10.32;6.20;;;2.90;1.00;;;;;;4887685;29;20215;-80
2020/12/26 08:47:59;;;;;;;7.10;6.10;;;2.70;99.90;;;;;;4873133;29;20225;-75
2020/12/26 08:50:28;;;;;;;5.45;4.65;;;3.00;99.90;;;;;;4881766;29;20296;-71
2020/12/26 08:53:10;;;;;;;7.07;4.70;;;3.40;99.90;;;;;;4872665;29;20224;-75
2020/12/26 08:55:48;;;;;;;6.95;4.90;;;3.70;1.00;;;;;;4875171;29;20215;-77
2020/12/26 08:58:29;;;;;;;7.32;5.95;;;3.80;1.00;;;;;;4874705;29;20324;-76
2020/12/26 09:00:58;;;;;;;6.20;4.70;;;4.30;99.90;;;;;;4889902;29;20287;-74
2020/12/26 09:03:27;;;;;;;6.82;4.75;;;4.20;99.90;;;;;;4875810;29;20316;-74
2020/12/26 09:05:56;;;;;;;8.68;4.70;;;3.80;1.00;;;;;;4881348;29;20213;-74
2020/12/26 09:08:28;;;;;;;10.13;4.43;;;3.80;61.70;;;;;;4873306;29;20216;-74
2020/12/26 09:11:01;;;;;;;8.38;4.95;;;3.70;99.90;;;;;;4868634;29;20733;-72
2020/12/26 09:13:34;;;;;;;8.07;4.40;;;3.50;99.90;;;;;;4864782;29;20220;-74
2020/12/26 09:16:09;;;;;;;4.25;3.78;;;3.40;1.00;;;;;;4864702;29;20233;-75
2020/12/26 09:18:38;;;;;;;5.15;4.68;;;3.20;1.00;;;;;;4863632;29;20235;-75
2020/12/26 09:21:08;;;;;;;4.35;3.65;;;3.10;1.00;;;;;;4867821;29;20236;-78
2020/12/26 09:23:37;;;;;;;8.70;5.18;;;2.90;99.90;;;;;;4863087;29;20219;-74
2020/12/26 09:26:12;;;;;;;8.20;5.05;;;2.80;82.40;;;;;;4870010;29;20284;-77
2020/12/26 09:28:51;;;;;;;6.13;4.07;;;2.90;99.90;;;;;;4864268;29;20215;-75
2020/12/26 09:31:21;;;;;;;5.25;4.32;;;2.90;94.00;;;;;;4867319;29;20399;-75
2020/12/26 09:33:48;;;;;;;7.10;4.22;;;2.90;1.00;;;;;;4867771;29;20226;-75
2020/12/26 09:36:21;;;;;;;4.30;3.10;;;3.00;35.50;;;;;;4870420;29;21466;-74
2020/12/26 09:38:49;;;;;;;4.60;3.67;;;3.00;99.90;;;;;;4868846;29;20261;-74
2020/12/26 09:41:19;;;;;;;5.78;4.00;;;2.90;75.90;;;;;;4868260;29;20330;-74
2020/12/26 09:43:48;;;;;;;6.30;3.78;;;2.90;66.70;;;;;;4869338;29;20226;-72
2020/12/26 09:46:15;;;;;;;7.05;4.57;;;2.90;99.90;;;;;;4866091;29;20376;-75
2020/12/26 09:48:44;;;;;;;6.25;3.80;;;3.00;1.00;;;;;;4868693;29;20227;-77
2020/12/26 09:51:14;;;;;;;4.40;3.58;;;2.90;99.90;;;;;;4869507;29;20349;-77
2020/12/26 09:53:43;;;;;;;4.60;4.00;;;3.00;99.90;;;;;;4867587;29;20544;-74
2020/12/26 09:56:11;;;;;;;6.20;4.00;;;2.90;26.20;;;;;;4866862;29;20218;-74
2020/12/26 09:58:40;;;;;;;5.25;3.55;;;3.10;99.90;;;;;;4868169;29;20244;-74
2020/12/26 10:01:07;;;;;;;6.05;3.90;;;3.20;1.00;;;;;;4862385;29;21707;-74
2020/12/26 10:03:35;;;;;;;6.43;3.72;;;3.40;1.00;;;;;;4870578;29;20275;-73
2020/12/26 10:06:02;;;;;;;5.00;4.50;;;3.40;1.00;;;;;;4872660;29;20218;-73
2020/12/26 10:08:30;;;;;;;6.55;4.85;;;3.40;1.00;;;;;;4868200;29;20226;-77
2020/12/26 10:10:58;;;;;;;5.57;3.42;;;3.50;1.00;;;;;;4880308;29;20298;-74
2020/12/26 10:13:25;;;;;;;5.72;5.03;;;3.50;1.00;;;;;;4865112;29;20536;-73
2020/12/26 10:15:52;;;;;;;4.68;4.15;;;3.60;99.90;;;;;;4869283;29;20318;-74
2020/12/26 10:18:20;;;;;;;5.90;4.40;;;3.70;99.90;;;;;;4875549;29;20432;-74
2020/12/26 10:20:47;;;;;;;4.70;4.25;;;3.90;35.20;;;;;;4872920;29;20283;-75
2020/12/26 10:23:15;;;;;;;7.30;4.25;;;3.90;99.90;;;;;;4874492;29;20269;-72
2020/12/26 10:25:48;;;;;;;7.00;4.45;;;3.90;1.00;;;;;;4890678;29;20797;-75
2020/12/26 10:28:17;;;;;;;6.15;3.90;;;4.00;75.50;;;;;;4874679;29;20215;-73
2020/12/26 10:30:44;;;;;;;6.72;4.85;;;4.00;1.00;;;;;;4874993;29;20232;-75
2020/12/26 10:33:11;;;;;;;5.93;3.95;;;4.00;1.00;;;;;;4871898;29;20260;-74
2020/12/26 10:35:39;;;;;;;5.13;3.97;;;4.00;1.00;;;;;;4874552;29;20226;-73
2020/12/26 10:38:06;;;;;;;4.75;4.35;;;4.10;74.80;;;;;;4876600;29;20214;-73
2020/12/26 10:40:33;;;;;;;4.78;4.38;;;4.20;1.00;;;;;;4872059;29;20242;-73
2020/12/26 10:43:00;;;;;;;5.25;4.43;;;4.20;99.90;;;;;;4874740;29;20230;-73
2020/12/26 10:45:28;;;;;;;6.60;3.90;;;3.90;1.00;;;;;;4876045;29;20220;-72
2020/12/26 10:47:55;;;;;;;5.65;4.45;;;3.90;1.00;;;;;;4864508;29;20226;-73
2020/12/26 10:50:22;;;;;;;5.00;3.83;;;3.90;80.50;;;;;;4874080;29;20233;-73
2020/12/26 10:52:49;;;;;;;4.60;4.20;;;3.80;1.00;;;;;;4874395;29;20494;-75
2020/12/26 10:55:17;;;;;;;5.95;4.20;;;4.10;1.00;;;;;;4875880;29;20218;-73
2020/12/26 10:57:45;;;;;;;6.40;5.18;;;4.40;1.00;;;;;;4874594;29;20218;-75
2020/12/26 11:00:13;;;;;;;6.68;5.15;;;4.50;99.90;;;;;;4875129;29;20242;-73
2020/12/26 11:02:41;;;;;;;4.15;3.85;;;4.60;99.90;;;;;;4875358;29;20217;-73
2020/12/26 11:05:08;;;;;;;7.10;4.95;;;4.60;99.90;;;;;;4884310;29;20216;-73
2020/12/26 11:07:36;;;;;;;6.13;4.65;;;4.80;99.90;;;;;;4866386;29;20209;-75
2020/12/26 11:10:04;;;;;;;4.45;4.05;;;4.80;99.90;;;;;;4865075;29;20220;-76
2020/12/26 11:12:31;;;;;;;7.22;4.15;;;4.70;99.90;;;;;;4866427;29;20685;-74
2020/12/26 11:14:59;;;;;;;5.80;5.20;;;4.60;99.90;;;;;;4877166;29;20520;-74
2020/12/26 11:17:26;;;;;;;5.05;4.30;;;4.30;99.90;;;;;;4873131;29;20202;-73
2020/12/26 11:19:54;;;;;;;6.15;4.50;;;4.10;99.90;;;;;;4873115;29;20292;-73
2020/12/26 11:22:21;;;;;;;3.85;3.53;;;4.10;99.90;;;;;;4874762;29;20902;-74
2020/12/26 11:24:48;;;;;;;5.15;4.60;;;4.50;1.00;;;;;;4875067;29;20224;-76
2020/12/26 11:27:15;;;;;;;5.78;4.60;;;4.40;99.90;;;;;;4875368;29;20292;-75
2020/12/26 11:29:42;;;;;;;5.05;3.67;;;4.60;99.90;;;;;;4874985;29;20214;-74
2020/12/26 11:32:10;;;;;;;4.22;3.83;;;4.80;99.90;;;;;;4868702;29;20282;-76
2020/12/26 11:34:37;;;;;;;4.95;4.30;;;4.90;89.50;;;;;;4878738;29;21091;-72
2020/12/26 11:37:08;;;;;;;9.02;4.40;;;5.10;1.00;;;;;;4882396;29;20295;-73
2020/12/26 11:39:35;;;;;;;5.00;4.07;;;5.00;1.00;;;;;;4873941;29;20286;-73
2020/12/26 11:42:02;;;;;;;4.07;3.53;;;5.00;1.00;;;;;;4875617;29;20652;-74
2020/12/26 11:44:29;;;;;;;7.20;4.22;;;4.90;1.00;;;;;;4875662;29;20244;-74
2020/12/26 11:46:58;;;;;;;4.45;3.20;;;4.90;1.00;;;;;;4869244;29;20222;-73
2020/12/26 11:49:26;;;;;;;4.15;3.55;;;5.20;1.00;;;;;;4875651;29;20214;-73
2020/12/26 11:51:54;;;;;;;4.40;3.92;;;5.60;1.00;;;;;;4875344;29;20242;-73
2020/12/26 11:54:23;;;;;;;7.10;4.05;;;6.20;1.00;;;;;;4873473;29;20208;-74
2020/12/26 11:56:52;;;;;;;5.03;4.10;;;6.40;99.90;;;;;;4888503;29;20488;-73
2020/12/26 11:59:19;;;;;;;5.20;4.68;;;6.60;99.90;;;;;;4871934;29;20496;-75
2020/12/26 12:01:46;;;;;;;5.70;3.22;;;6.70;99.90;;;;;;4873514;29;20633;-72
2020/12/26 12:04:13;;;;;;;4.10;3.67;;;6.80;99.90;;;;;;4872758;29;20285;-73
2020/12/26 12:06:41;;;;;;;5.17;4.63;;;7.10;99.90;;;;;;4872377;29;20477;-72
2020/12/26 12:09:08;;;;;;;4.23;3.83;;;7.30;99.90;;;;;;4871045;29;20596;-72
2020/12/26 12:11:36;;;;;;;5.30;3.27;;;7.40;99.90;;;;;;4873257;29;21043;-74
2020/12/26 12:14:04;;;;;;;5.07;3.70;;;7.50;99.90;;;;;;4873922;29;20459;-72
2020/12/26 12:16:31;;;;;;;7.03;4.30;;;7.50;99.90;;;;;;4872538;29;20484;-72
2020/12/26 12:18:58;;;;;;;3.90;3.50;;;7.40;99.90;;;;;;4872999;29;20874;-74
2020/12/26 12:21:25;;;;;;;4.60;4.20;;;7.30;99.90;;;;;;4877584;29;20493;-73
2020/12/26 12:23:52;;;;;;;12.83;3.80;;;7.10;99.90;;;;;;4871416;29;20975;-74
2020/12/26 12:26:23;;;;;;;3.87;3.40;;;6.90;99.90;;;;;;4873526;29;20479;-74
2020/12/26 12:28:53;;;;;;;7.57;3.90;;;6.90;99.90;;;;;;4873110;29;20460;-73
2020/12/26 12:31:22;;;;;;;3.60;3.30;;;6.50;99.90;;;;;;4874536;29;20495;-73
2020/12/26 12:33:49;;;;;;;6.00;4.07;;;6.10;99.90;;;;;;4871528;29;20581;-73
2020/12/26 12:36:17;;;;;;;5.73;3.10;;;5.90;99.90;;;;;;4873384;29;20461;-73
2020/12/26 12:38:44;;;;;;;4.33;3.30;;;5.70;99.90;;;;;;4872535;29;20581;-73
2020/12/26 12:41:13;;;;;;;5.90;4.73;;;5.70;99.90;;;;;;4874405;29;20500;-74
2020/12/26 12:43:40;;;;;;;4.90;4.40;;;6.00;99.90;;;;;;4865401;29;20524;-75
2020/12/26 12:46:10;;;;;;;6.27;3.83;;;6.40;99.90;;;;;;4876173;29;20474;-72
2020/12/26 12:48:37;;;;;;;4.03;3.37;;;6.60;99.90;;;;;;4873924;29;20474;-76
2020/12/26 12:51:05;;;;;;;4.53;3.07;;;6.50;99.90;;;;;;4873832;29;21016;-78
2020/12/26 12:53:32;;;;;;;3.77;3.17;;;6.70;99.90;;;;;;4868989;29;20505;-77
2020/12/26 12:55:59;;;;;;;4.50;3.63;;;6.60;99.90;;;;;;4883287;29;20508;-72
2020/12/26 12:58:27;;;;;;;4.80;3.67;;;6.30;99.90;;;;;;4868621;29;20480;-73
2020/12/26 13:00:54;;;;;;;5.50;3.97;;;6.10;99.90;;;;;;4870391;29;20489;-72
2020/12/26 13:03:22;;;;;;;3.83;3.03;;;5.70;99.90;;;;;;4869516;29;20505;-72
2020/12/26 13:05:49;;;;;;;3.80;3.33;;;5.80;99.90;;;;;;4871867;29;20281;-73
2020/12/26 13:08:17;;;;;;;6.63;5.33;;;5.80;99.90;;;;;;4871518;29;20533;-72
2020/12/26 13:10:44;;;;;;;5.03;3.97;;;6.00;99.90;;;;;;4872359;29;20492;-72
2020/12/26 13:13:11;;;;;;;3.73;3.37;;;6.00;99.90;;;;;;4872290;29;20261;-73
2020/12/26 13:15:40;;;;;;;4.03;3.10;;;5.90;99.90;;;;;;4872914;29;20482;-72
2020/12/26 13:18:08;;;;;;;5.90;3.70;;;6.00;99.90;;;;;;4872728;29;20991;-75